This is the latest recevied weather packets stored in our database for station/object KD9DOE. If no packets are shown the sender has not sent any weather packets the latest 10 day(s).
| Time | Temp. | Humidity | Pressure | Rain* | Wind** | Luminosity | Snow |
|---|---|---|---|---|---|---|---|
| 1777728815 | 7.78° C | 54% | 1019.6 hPa | 0 mm | - | 122 W/m² | - |
| 1777728512 | 7.78° C | 55% | 1019.5 hPa | 0 mm | - | 87 W/m² | - |
| 1777728209 | 7.78° C | 56% | 1019.6 hPa | 0 mm | - | 105 W/m² | - |
| 1777727906 | 7.78° C | 58% | 1019.6 hPa | 0 mm | - | 135 W/m² | - |
| 1777727603 | 7.22° C | 60% | 1019.6 hPa | 0 mm | - | 162 W/m² | - |
| 1777727300 | 7.22° C | 60% | 1019.7 hPa | 0 mm | - | 58 W/m² | - |
| 1777726998 | 6.67° C | 62% | 1019.8 hPa | 0 mm | - | 91 W/m² | - |
| 1777726694 | 6.67° C | 62% | 1019.7 hPa | 0 mm | - | 55 W/m² | - |
| 1777726392 | 6.11° C | 64% | 1019.7 hPa | 0 mm | - | 133 W/m² | - |
| 1777726089 | 6.11° C | 65% | 1019.7 hPa | 0 mm | - | 69 W/m² | - |
| 1777725785 | 6.11° C | 67% | 1019.8 hPa | 0 mm | - | 92 W/m² | - |
| 1777725483 | 6.11° C | 66% | 1019.7 hPa | 0 mm | - | 113 W/m² | - |
| 1777725180 | 5.56° C | 67% | 1019.5 hPa | 0 mm | - | 144 W/m² | - |
| 1777724877 | 5° C | 70% | 1019.5 hPa | 0 mm | - | 140 W/m² | - |
| 1777724573 | 4.44° C | 73% | 1019.7 hPa | 0 mm | - | 123 W/m² | - |
| 1777724271 | 4.44° C | 73% | 1019.4 hPa | 0 mm | - | 107 W/m² | - |
| 1777723969 | 3.89° C | 75% | 1019.7 hPa | 0 mm | - | 35 W/m² | - |
| 1777723665 | 3.89° C | 77% | 1019.8 hPa | 0 mm | - | 39 W/m² | - |
| 1777723362 | 3.33° C | 78% | 1019.4 hPa | 0 mm | - | 33 W/m² | - |
| 1777723060 | 3.33° C | 80% | 1019.5 hPa | 0 mm | - | 33 W/m² | - |
| 1777722757 | 2.78° C | 82% | 1019.4 hPa | 0 mm | - | 35 W/m² | - |
| 1777722452 | 2.22° C | 86% | 1019.5 hPa | 0 mm | - | 31 W/m² | - |
| 1777722150 | 2.22° C | 86% | 1019.4 hPa | 0 mm | - | 29 W/m² | - |
| 1777721847 | 1.67° C | 87% | 1019.3 hPa | 0 mm | - | 21 W/m² | - |
| 1777721545 | 1.67° C | 87% | 1019.1 hPa | 0 mm | - | 18 W/m² | - |
* Rain latest hour (hover to see other rain measurements)
** Current wind speed in m/s (hover to see current wind gust speed)